createdAt,value
2018-07-23T00:02:04.344Z,11.93
2018-07-23T00:04:32.838Z,13.23
2018-07-23T00:07:01.702Z,11.80
2018-07-23T00:09:30.219Z,12.33
2018-07-23T00:11:58.720Z,12.63
2018-07-23T00:14:27.251Z,10.73
2018-07-23T00:16:55.723Z,12.40
2018-07-23T00:19:24.265Z,12.40
2018-07-23T00:21:52.778Z,12.37
2018-07-23T00:24:21.278Z,12.70
2018-07-23T00:26:49.796Z,12.13
2018-07-23T00:29:18.341Z,11.67
2018-07-23T00:31:46.850Z,11.37
2018-07-23T00:34:15.375Z,12.10
2018-07-23T00:36:43.903Z,12.67
2018-07-23T00:39:12.418Z,12.00
2018-07-23T00:41:40.900Z,12.07
2018-07-23T00:44:09.403Z,13.80
2018-07-23T00:46:38.238Z,13.50
2018-07-23T00:49:06.847Z,12.33
2018-07-23T00:51:35.329Z,13.57
2018-07-23T00:54:03.874Z,13.30
2018-07-23T00:56:32.722Z,12.43
2018-07-23T00:59:01.222Z,12.53
2018-07-23T01:01:29.705Z,13.03
2018-07-23T01:03:58.214Z,13.07
2018-07-23T01:06:26.426Z,13.03
2018-07-23T01:08:54.898Z,13.07
2018-07-23T01:11:23.403Z,13.07
2018-07-23T01:13:51.882Z,13.87
2018-07-23T01:16:20.379Z,13.90
2018-07-23T01:18:48.890Z,12.50
2018-07-23T01:21:17.548Z,13.40
2018-07-23T01:23:46.027Z,12.70
2018-07-23T01:26:14.531Z,12.20
2018-07-23T01:28:43.075Z,12.30
2018-07-23T01:31:11.569Z,12.80
2018-07-23T01:33:40.051Z,12.37
2018-07-23T01:36:08.563Z,12.83
2018-07-23T01:38:37.022Z,12.40
2018-07-23T01:41:05.587Z,12.93
2018-07-23T01:43:34.369Z,11.87
2018-07-23T01:46:02.854Z,12.70
2018-07-23T01:48:31.328Z,12.93
2018-07-23T01:50:59.823Z,11.83
2018-07-23T01:53:28.301Z,12.63
2018-07-23T01:55:57.190Z,12.30
2018-07-23T01:58:25.694Z,11.13
2018-07-23T02:00:54.242Z,12.50
2018-07-23T02:03:22.731Z,12.03
2018-07-23T02:05:51.231Z,13.07
2018-07-23T02:08:19.752Z,12.40
2018-07-23T02:10:48.288Z,13.20
2018-07-23T02:13:16.774Z,13.63
2018-07-23T02:15:45.271Z,14.57
2018-07-23T02:18:13.781Z,13.40
2018-07-23T02:20:42.450Z,13.73
2018-07-23T02:23:10.982Z,12.30
2018-07-23T02:25:39.469Z,12.17
2018-07-23T02:28:08.304Z,12.37
2018-07-23T02:30:36.823Z,12.47
2018-07-23T02:33:05.796Z,13.90
2018-07-23T02:35:34.856Z,13.73
2018-07-23T02:38:03.359Z,14.20
2018-07-23T02:40:31.930Z,14.60
2018-07-23T02:43:00.473Z,14.87
2018-07-23T02:45:29.164Z,15.97
2018-07-23T02:47:57.983Z,16.20
2018-07-23T02:50:26.492Z,16.07
2018-07-23T02:52:54.977Z,15.77
2018-07-23T02:55:23.498Z,16.17
2018-07-23T02:57:51.677Z,16.60
2018-07-23T03:00:20.171Z,15.93
2018-07-23T03:02:48.649Z,17.73
2018-07-23T03:05:17.159Z,18.63
2018-07-23T03:07:45.695Z,19.67
2018-07-23T03:10:14.204Z,20.93
2018-07-23T03:12:42.731Z,20.97
2018-07-23T03:15:11.234Z,22.20
2018-07-23T03:17:40.112Z,22.07
2018-07-23T03:20:08.686Z,23.87
2018-07-23T03:22:37.210Z,22.80
2018-07-23T03:25:05.702Z,23.10
2018-07-23T03:27:34.215Z,25.90
2018-07-23T03:30:02.744Z,25.33
2018-07-23T03:32:31.243Z,24.40
2018-07-23T03:34:59.767Z,25.73
2018-07-23T03:37:28.263Z,25.67
2018-07-23T03:39:56.811Z,26.00
2018-07-23T03:42:25.372Z,25.67
2018-07-23T03:44:53.845Z,25.13
2018-07-23T03:47:22.338Z,27.37
2018-07-23T03:49:50.852Z,27.03
2018-07-23T03:52:19.370Z,25.17
2018-07-23T03:54:47.882Z,26.43
2018-07-23T03:57:16.387Z,26.20
2018-07-23T03:59:44.888Z,26.30
2018-07-23T04:02:13.430Z,25.93
2018-07-23T04:04:41.944Z,28.17
2018-07-23T04:07:10.438Z,27.57
2018-07-23T04:09:38.928Z,28.73
2018-07-23T04:12:07.454Z,29.30
2018-07-23T04:14:35.915Z,28.73
2018-07-23T04:17:04.799Z,26.33
2018-07-23T04:19:33.850Z,27.97
2018-07-23T04:22:02.390Z,28.90
2018-07-23T04:24:30.881Z,29.17
2018-07-23T04:26:59.408Z,27.77
2018-07-23T04:29:27.898Z,28.73
2018-07-23T04:31:56.419Z,29.63
2018-07-23T04:34:24.892Z,27.70
2018-07-23T04:36:53.388Z,28.30
2018-07-23T04:39:21.890Z,29.43
2018-07-23T04:41:50.420Z,28.90
2018-07-23T04:44:18.895Z,29.53
2018-07-23T04:46:47.423Z,28.53
2018-07-23T04:49:15.954Z,28.93
2018-07-23T04:51:44.640Z,27.13
2018-07-23T04:54:13.118Z,26.87
2018-07-23T04:56:41.636Z,28.37
2018-07-23T04:59:10.288Z,28.60
2018-07-23T05:01:39.151Z,29.83
2018-07-23T05:04:07.637Z,28.33
2018-07-23T05:06:36.131Z,28.17
2018-07-23T05:09:08.361Z,28.63
2018-07-23T05:11:36.907Z,29.00
2018-07-23T05:14:05.537Z,29.13
2018-07-23T05:16:34.075Z,28.80
2018-07-23T05:19:02.708Z,29.40
2018-07-23T05:21:31.176Z,28.67
2018-07-23T05:23:59.692Z,27.80
2018-07-23T05:26:28.819Z,28.87
2018-07-23T05:28:57.290Z,28.37
2018-07-23T05:31:25.787Z,27.73
2018-07-23T05:33:54.271Z,26.97
2018-07-23T05:36:22.770Z,27.00
2018-07-23T05:38:51.262Z,26.83
2018-07-23T05:41:19.724Z,29.00
2018-07-23T05:43:48.251Z,26.07
2018-07-23T05:46:16.783Z,26.47
2018-07-23T05:48:45.293Z,27.53
2018-07-23T05:51:13.750Z,26.97
2018-07-23T05:53:42.266Z,26.37
2018-07-23T05:56:10.751Z,25.33
2018-07-23T05:58:39.455Z,25.00
2018-07-23T06:01:07.962Z,25.30
2018-07-23T06:03:36.519Z,26.27
2018-07-23T06:06:05.200Z,25.07
2018-07-23T06:08:33.743Z,24.27
2018-07-23T06:11:02.295Z,22.97
2018-07-23T06:13:30.577Z,22.50
2018-07-23T06:15:59.231Z,21.90
2018-07-23T06:18:27.770Z,22.63
2018-07-23T06:20:56.267Z,21.30
2018-07-23T06:23:24.773Z,19.93
2018-07-23T06:25:53.599Z,18.83
2018-07-23T06:28:22.205Z,18.57
2018-07-23T06:30:50.731Z,17.93
2018-07-23T06:33:19.279Z,17.20
2018-07-23T06:35:47.758Z,18.63
2018-07-23T06:38:16.367Z,16.03
2018-07-23T06:40:44.859Z,15.67
2018-07-23T06:43:13.375Z,16.50
2018-07-23T06:45:42.326Z,16.32
2018-07-23T06:48:11.415Z,17.40
2018-07-23T06:50:40.475Z,14.73
2018-07-23T06:53:09.559Z,18.85
2018-07-23T06:55:38.647Z,15.95
2018-07-23T06:58:08.348Z,15.35
2018-07-23T07:00:37.619Z,15.80
2018-07-23T07:03:07.350Z,14.38
2018-07-23T07:05:36.495Z,14.05
2018-07-23T07:08:05.886Z,15.08
2018-07-23T07:10:34.996Z,15.08
2018-07-23T07:13:04.167Z,14.73
2018-07-23T07:15:33.231Z,13.60
2018-07-23T07:18:02.282Z,14.18
2018-07-23T07:20:31.382Z,14.73
2018-07-23T07:23:00.423Z,14.07
2018-07-23T07:25:29.569Z,13.25
2018-07-23T07:27:58.824Z,14.68
2018-07-23T07:30:27.927Z,15.00
2018-07-23T07:32:57.425Z,16.12
2018-07-23T07:35:25.954Z,15.57
2018-07-23T07:37:54.575Z,13.87
2018-07-23T07:40:23.283Z,14.53
2018-07-23T07:42:51.792Z,14.00
2018-07-23T07:45:20.392Z,12.63
2018-07-23T07:47:48.895Z,13.20
2018-07-23T07:50:18.444Z,14.47
2018-07-23T07:52:47.001Z,13.10
2018-07-23T07:55:15.525Z,14.10
2018-07-23T07:57:44.026Z,12.93
2018-07-23T08:00:12.547Z,13.00
2018-07-23T08:02:41.038Z,11.63
2018-07-23T08:05:09.644Z,12.03
2018-07-23T08:07:38.741Z,11.15
2018-07-23T08:10:07.835Z,10.25
2018-07-23T08:12:36.964Z,11.08
2018-07-23T08:15:06.616Z,10.55
2018-07-23T08:17:35.738Z,11.05
2018-07-23T08:20:05.320Z,10.75
2018-07-23T08:22:34.618Z,10.65
2018-07-23T08:25:03.822Z,10.30
2018-07-23T08:27:33.128Z,10.48
2018-07-23T08:30:02.597Z,8.68
2018-07-23T08:32:31.659Z,10.40
2018-07-23T08:35:00.737Z,9.08
2018-07-23T08:37:29.808Z,10.95
2018-07-23T08:39:58.947Z,9.13
2018-07-23T08:42:28.133Z,8.53
2018-07-23T08:44:57.221Z,8.88
2018-07-23T08:47:26.275Z,7.17
2018-07-23T08:49:55.708Z,8.53
2018-07-23T08:52:24.818Z,9.35
2018-07-23T08:54:53.920Z,8.25
2018-07-23T08:57:23.046Z,7.60
2018-07-23T08:59:52.282Z,7.47
2018-07-23T09:02:21.437Z,6.97
2018-07-23T09:04:50.664Z,6.25
2018-07-23T09:07:19.712Z,6.83
2018-07-23T09:09:48.839Z,5.80
2018-07-23T09:12:17.899Z,7.12
2018-07-23T09:14:46.958Z,6.53
2018-07-23T09:17:15.529Z,6.77
2018-07-23T09:19:44.180Z,7.97
2018-07-23T09:22:12.721Z,7.27
2018-07-23T09:24:41.859Z,6.70
2018-07-23T09:27:10.360Z,7.70
2018-07-23T09:29:38.877Z,6.53
2018-07-23T09:32:07.362Z,6.90
2018-07-23T09:34:35.870Z,7.10
2018-07-23T09:37:04.425Z,6.87
2018-07-23T09:39:33.198Z,6.77
2018-07-23T09:42:01.671Z,6.20
2018-07-23T09:44:30.189Z,4.70
2018-07-23T09:46:58.695Z,4.97
2018-07-23T09:49:27.205Z,4.87
2018-07-23T09:51:56.085Z,5.00
2018-07-23T09:54:24.930Z,5.60
2018-07-23T09:56:53.698Z,5.60
2018-07-23T09:59:22.175Z,5.03
2018-07-23T10:01:51.055Z,5.87
2018-07-23T10:04:19.531Z,5.00
2018-07-23T10:06:48.037Z,5.07
2018-07-23T10:12:15.428Z,4.87
2018-07-23T10:14:43.909Z,4.00
2018-07-23T10:17:12.379Z,4.83
2018-07-23T10:19:40.856Z,4.23
2018-07-23T10:22:09.411Z,4.13
2018-07-23T10:24:37.947Z,3.60
2018-07-23T10:27:06.490Z,4.27
2018-07-23T10:29:35.035Z,3.73
2018-07-23T10:32:03.711Z,3.90
2018-07-23T10:34:32.194Z,3.50
2018-07-23T10:37:00.708Z,3.30
2018-07-23T10:39:29.212Z,4.87
2018-07-23T10:41:57.698Z,3.93
2018-07-23T10:44:26.186Z,3.60
2018-07-23T10:46:55.029Z,4.10
2018-07-23T10:49:23.508Z,4.77
2018-07-23T10:51:52.011Z,4.20
2018-07-23T10:54:20.518Z,3.60
2018-07-23T10:56:49.059Z,3.60
2018-07-23T10:59:17.579Z,3.90
2018-07-23T11:01:46.112Z,4.00
2018-07-23T11:04:14.641Z,3.57
2018-07-23T11:06:43.681Z,3.77
2018-07-23T11:09:12.140Z,3.40
2018-07-23T11:11:40.688Z,3.50
2018-07-23T11:14:09.206Z,3.20
2018-07-23T11:16:37.754Z,4.50
2018-07-23T11:19:06.350Z,3.73
2018-07-23T11:21:34.867Z,3.67
2018-07-23T11:24:06.854Z,4.17
2018-07-23T11:26:35.896Z,3.63
2018-07-23T11:29:04.555Z,4.10
2018-07-23T11:31:33.102Z,3.83
2018-07-23T11:34:01.595Z,3.70
2018-07-23T11:36:32.449Z,3.80
2018-07-23T11:39:01.491Z,4.10
2018-07-23T11:41:30.096Z,4.10
2018-07-23T11:43:58.695Z,4.43
2018-07-23T11:46:27.195Z,3.80
2018-07-23T11:48:55.683Z,3.73
2018-07-23T11:51:24.178Z,4.00
2018-07-23T11:53:52.696Z,4.10
2018-07-23T11:56:21.390Z,4.77
2018-07-23T11:58:49.900Z,4.07
2018-07-23T12:01:22.445Z,3.67
2018-07-23T12:03:51.733Z,3.80
2018-07-23T12:06:20.651Z,4.17
2018-07-23T12:08:49.602Z,4.43
2018-07-23T12:11:18.142Z,3.97
2018-07-23T12:13:46.647Z,3.87
2018-07-23T12:16:15.183Z,3.70
2018-07-23T12:18:43.662Z,4.53
2018-07-23T12:21:12.206Z,4.03
2018-07-23T12:23:40.682Z,4.30
2018-07-23T12:26:09.269Z,4.03
2018-07-23T12:28:37.920Z,3.87
2018-07-23T12:31:06.415Z,3.83
2018-07-23T12:33:34.949Z,3.97
2018-07-23T12:36:03.805Z,4.67
2018-07-23T12:38:32.335Z,4.10
2018-07-23T12:41:00.818Z,4.10
2018-07-23T12:43:29.343Z,4.37
2018-07-23T12:45:57.863Z,4.40
2018-07-23T12:48:26.730Z,4.07
2018-07-23T12:50:55.215Z,3.70
2018-07-23T12:53:23.766Z,4.30
2018-07-23T12:55:52.430Z,4.13
2018-07-23T12:58:20.974Z,4.67
2018-07-23T13:00:49.158Z,4.27
2018-07-23T13:03:17.693Z,3.80
2018-07-23T13:05:46.226Z,4.53
2018-07-23T13:08:14.827Z,3.47
2018-07-23T13:10:43.784Z,4.80
2018-07-23T13:13:12.408Z,5.70
2018-07-23T13:15:40.919Z,3.87
2018-07-23T13:18:09.431Z,3.70
2018-07-23T13:20:37.947Z,4.60
2018-07-23T13:23:06.475Z,3.40
2018-07-23T13:25:35.009Z,3.87
2018-07-23T13:28:05.951Z,3.17
2018-07-23T13:30:36.043Z,3.90
2018-07-23T13:33:08.964Z,4.30
2018-07-23T13:35:39.972Z,3.57
2018-07-23T13:38:08.777Z,3.77
2018-07-23T13:40:37.423Z,4.23
2018-07-23T13:43:07.735Z,3.70
2018-07-23T13:45:36.725Z,3.87
2018-07-23T13:48:08.506Z,4.03
2018-07-23T13:50:37.368Z,3.60
2018-07-23T13:53:05.898Z,4.17
2018-07-23T13:55:34.395Z,3.87
2018-07-23T13:58:02.927Z,3.97
2018-07-23T14:00:31.392Z,4.27
2018-07-23T14:02:59.922Z,3.67
2018-07-23T14:05:28.446Z,7.20
2018-07-23T14:07:56.996Z,4.00
2018-07-23T14:10:25.499Z,3.80
2018-07-23T14:12:54.028Z,4.07
2018-07-23T14:15:22.548Z,3.07
2018-07-23T14:17:51.045Z,3.43
2018-07-23T14:20:19.564Z,3.23
2018-07-23T14:22:48.102Z,3.57
2018-07-23T14:25:16.602Z,3.07
2018-07-23T14:27:45.113Z,2.83
2018-07-23T14:30:13.628Z,2.80
2018-07-23T14:32:42.301Z,3.07
2018-07-23T14:35:10.806Z,2.67
2018-07-23T14:37:39.373Z,2.90
2018-07-23T14:40:21.696Z,3.23
2018-07-23T14:42:58.391Z,3.00
2018-07-23T14:45:27.015Z,3.10
2018-07-23T14:47:57.835Z,3.30
2018-07-23T14:50:43.323Z,3.10
2018-07-23T14:53:12.866Z,3.37
2018-07-23T14:55:42.964Z,3.10
2018-07-23T14:58:11.581Z,3.27
2018-07-23T15:00:40.073Z,3.47
2018-07-23T15:03:08.578Z,2.67
2018-07-23T15:05:36.758Z,3.47
2018-07-23T15:08:05.611Z,3.33
2018-07-23T15:10:34.111Z,3.33
2018-07-23T15:13:02.641Z,3.00
2018-07-23T15:15:31.123Z,3.27
2018-07-23T15:17:59.608Z,3.43
2018-07-23T15:20:28.143Z,3.07
2018-07-23T15:22:56.622Z,3.30
2018-07-23T15:25:25.116Z,3.40
2018-07-23T15:27:53.696Z,2.93
2018-07-23T15:30:22.224Z,3.03
2018-07-23T15:32:50.704Z,3.07
2018-07-23T15:35:19.228Z,3.10
2018-07-23T15:37:47.766Z,3.40
2018-07-23T15:40:16.663Z,3.20
2018-07-23T15:42:45.195Z,3.50
2018-07-23T15:45:13.986Z,3.30
2018-07-23T15:47:42.727Z,3.07
2018-07-23T15:50:11.262Z,3.10
2018-07-23T15:52:39.766Z,3.40
2018-07-23T15:55:08.484Z,3.00
2018-07-23T15:57:36.955Z,2.90
2018-07-23T16:00:07.007Z,3.20
2018-07-23T16:02:35.728Z,3.40
2018-07-23T16:05:04.642Z,3.10
2018-07-23T16:07:33.555Z,3.23
2018-07-23T16:10:02.948Z,3.10
2018-07-23T16:12:31.441Z,3.43
2018-07-23T16:14:59.950Z,3.00
2018-07-23T16:17:28.431Z,3.80
2018-07-23T16:19:57.061Z,3.50
2018-07-23T16:22:25.559Z,3.17
2018-07-23T16:24:54.050Z,3.50
2018-07-23T16:27:22.610Z,3.10
2018-07-23T16:29:51.120Z,3.53
2018-07-23T16:32:19.967Z,3.43
2018-07-23T16:34:48.534Z,3.07
2018-07-23T16:37:17.030Z,3.50
2018-07-23T16:39:45.557Z,3.43
2018-07-23T16:42:14.066Z,3.60
2018-07-23T16:44:42.610Z,3.63
2018-07-23T16:47:11.112Z,3.13
2018-07-23T16:49:39.606Z,3.20
2018-07-23T16:52:11.770Z,3.10
2018-07-23T16:54:47.157Z,3.60
2018-07-23T16:57:15.729Z,3.23
2018-07-23T16:59:44.323Z,3.17
2018-07-23T17:02:12.884Z,3.40
2018-07-23T17:04:41.660Z,3.23
2018-07-23T17:07:10.632Z,3.47
2018-07-23T17:09:39.511Z,3.40
2018-07-23T17:12:08.330Z,3.40
2018-07-23T17:14:36.856Z,3.37
2018-07-23T17:17:05.367Z,3.10
2018-07-23T17:19:33.891Z,3.50
2018-07-23T17:22:02.409Z,3.10
2018-07-23T17:24:32.249Z,3.03
2018-07-23T17:27:00.739Z,2.83
2018-07-23T17:29:29.245Z,3.40
2018-07-23T17:31:57.755Z,3.37
2018-07-23T17:34:26.261Z,3.73
2018-07-23T17:36:54.776Z,3.50
2018-07-23T17:39:23.272Z,3.50
2018-07-23T17:41:51.778Z,3.03
2018-07-23T17:44:20.334Z,3.60
2018-07-23T17:46:48.911Z,3.23
2018-07-23T17:49:17.411Z,2.87
2018-07-23T17:51:47.844Z,3.67
2018-07-23T17:54:19.058Z,3.70
2018-07-23T17:56:47.661Z,3.23
2018-07-23T17:59:18.236Z,3.13
2018-07-23T18:01:48.522Z,3.17
2018-07-23T18:04:19.467Z,3.70
2018-07-23T18:06:48.035Z,3.33
2018-07-23T18:09:16.874Z,3.27
2018-07-23T18:11:45.390Z,3.53
2018-07-23T18:14:13.909Z,3.30
2018-07-23T18:16:42.426Z,3.67
2018-07-23T18:19:10.948Z,3.60
2018-07-23T18:21:39.453Z,3.57
2018-07-23T18:24:07.943Z,3.27
2018-07-23T18:26:36.445Z,4.23
2018-07-23T18:29:05.059Z,4.13
2018-07-23T18:31:33.587Z,4.53
2018-07-23T18:34:02.095Z,3.80
2018-07-23T18:36:30.632Z,3.90
2018-07-23T18:38:59.245Z,3.93
2018-07-23T18:41:28.672Z,3.83
2018-07-23T18:43:57.202Z,3.93
2018-07-23T18:46:27.212Z,3.40
2018-07-23T18:49:33.961Z,3.70
2018-07-23T18:52:02.966Z,3.93
2018-07-23T18:54:32.410Z,3.27
2018-07-23T18:57:02.107Z,3.47
2018-07-23T18:59:31.002Z,3.47
2018-07-23T19:02:02.493Z,4.20
2018-07-23T19:04:31.366Z,3.60
2018-07-23T19:07:00.634Z,3.93
2018-07-23T19:09:29.766Z,4.03
2018-07-23T19:11:59.103Z,3.60
2018-07-23T19:14:27.719Z,3.17
2018-07-23T19:16:57.274Z,3.37
2018-07-23T19:19:26.093Z,3.23
2018-07-23T19:21:55.346Z,3.70
2018-07-23T19:24:24.298Z,3.77
2018-07-23T19:26:52.850Z,3.43
2018-07-23T19:29:21.757Z,3.63
2018-07-23T19:31:50.289Z,3.60
2018-07-23T19:34:19.485Z,3.53
2018-07-23T19:36:48.543Z,3.90
2018-07-23T19:39:18.532Z,4.00
2018-07-23T19:41:47.061Z,3.70
2018-07-23T19:44:15.724Z,3.50
2018-07-23T19:46:44.775Z,3.80
2018-07-23T19:49:13.318Z,3.80
2018-07-23T19:51:41.983Z,3.80
2018-07-23T19:54:10.954Z,5.03
2018-07-23T19:56:39.490Z,4.10
2018-07-23T19:59:08.047Z,3.60
2018-07-23T20:01:36.570Z,4.40
2018-07-23T20:04:05.199Z,3.90
2018-07-23T20:06:33.739Z,4.10
2018-07-23T20:09:02.749Z,4.40
2018-07-23T20:11:32.097Z,4.30
2018-07-23T20:14:00.618Z,4.53
2018-07-23T20:16:30.650Z,3.77
2018-07-23T20:18:59.660Z,4.27
2018-07-23T20:21:28.806Z,4.17
2018-07-23T20:23:57.574Z,4.23
2018-07-23T20:26:26.769Z,3.80
2018-07-23T20:28:55.275Z,3.70
2018-07-23T20:31:23.775Z,3.90
2018-07-23T20:33:52.258Z,4.43
2018-07-23T20:36:21.517Z,4.47
2018-07-23T20:38:50.018Z,4.43
2018-07-23T20:41:18.729Z,4.60
2018-07-23T20:43:47.195Z,4.47
2018-07-23T20:46:15.750Z,4.47
2018-07-23T20:48:44.291Z,5.03
2018-07-23T20:51:12.901Z,4.77
2018-07-23T20:53:41.438Z,4.90
2018-07-23T20:56:09.971Z,4.53
2018-07-23T20:58:38.648Z,4.63
2018-07-23T21:01:07.580Z,4.83
2018-07-23T21:03:36.106Z,4.70
2018-07-23T21:06:06.192Z,4.53
2018-07-23T21:08:34.795Z,4.87
2018-07-23T21:11:03.439Z,4.70
2018-07-23T21:13:31.927Z,4.60
2018-07-23T21:16:02.016Z,5.47
2018-07-23T21:18:31.381Z,5.30
2018-07-23T21:21:02.465Z,5.37
2018-07-23T21:23:32.062Z,5.53
2018-07-23T21:26:01.849Z,4.90
2018-07-23T21:28:30.351Z,5.77
2018-07-23T21:31:00.068Z,5.37
2018-07-23T21:33:28.594Z,5.30
2018-07-23T21:35:57.695Z,5.20
2018-07-23T21:38:26.414Z,5.60
2018-07-23T21:40:55.775Z,5.40
2018-07-23T21:43:24.636Z,5.50
2018-07-23T21:45:56.548Z,5.00
2018-07-23T21:48:25.130Z,4.67
2018-07-23T21:50:53.965Z,5.33
2018-07-23T21:53:24.004Z,5.10
2018-07-23T21:55:56.480Z,4.57
2018-07-23T21:58:28.488Z,5.17
2018-07-23T22:00:58.204Z,5.07
2018-07-23T22:03:26.781Z,5.20
2018-07-23T22:05:55.323Z,5.77
2018-07-23T22:08:24.055Z,5.40
2018-07-23T22:10:56.187Z,6.27
2018-07-23T22:13:25.037Z,5.40
2018-07-23T22:15:53.948Z,5.13
2018-07-23T22:18:23.589Z,4.73
2018-07-23T22:20:52.170Z,6.23
2018-07-23T22:23:21.877Z,5.53
2018-07-23T22:25:50.903Z,5.17
2018-07-23T22:28:20.757Z,5.30
2018-07-23T22:30:49.851Z,5.00
2018-07-23T22:33:18.611Z,4.80
2018-07-23T22:35:47.400Z,5.27
2018-07-23T22:38:16.170Z,5.77
2018-07-23T22:40:46.170Z,5.60
2018-07-23T22:43:14.917Z,5.67
2018-07-23T22:45:43.509Z,5.90
2018-07-23T22:48:12.313Z,5.60
2018-07-23T22:50:41.059Z,6.33
2018-07-23T22:53:09.724Z,5.70
2018-07-23T22:55:38.442Z,6.60
2018-07-23T22:58:07.167Z,7.07
2018-07-23T23:00:35.906Z,6.20
2018-07-23T23:03:04.668Z,6.23
2018-07-23T23:05:35.625Z,6.23
2018-07-23T23:08:05.642Z,6.37
2018-07-23T23:10:35.665Z,6.30
2018-07-23T23:13:05.520Z,6.87
2018-07-23T23:15:35.140Z,5.97
2018-07-23T23:18:07.362Z,6.50
2018-07-23T23:20:50.277Z,6.17
2018-07-23T23:23:20.437Z,7.03
2018-07-23T23:25:55.301Z,6.53
2018-07-23T23:28:25.432Z,6.73
2018-07-23T23:30:56.713Z,6.60
2018-07-23T23:33:28.757Z,6.60
2018-07-23T23:36:02.547Z,6.13
2018-07-23T23:38:38.389Z,6.50
2018-07-23T23:41:07.016Z,6.07
2018-07-23T23:43:35.538Z,6.43
2018-07-23T23:46:04.023Z,6.13
2018-07-23T23:48:32.559Z,6.47
2018-07-23T23:51:01.040Z,6.47
2018-07-23T23:53:29.717Z,5.90
2018-07-23T23:55:58.304Z,5.47
2018-07-23T23:58:29.044Z,6.67
